Time;durP1;ratioP1;P1;durP2;ratioP2;P2;SDS_P1;SDS_P2;PMS_P1;PMS_P2;Temp;Humidity;BMP_temperature;BMP_pressure;BME280_temperature;BME280_humidity;BME280_pressure;Samples;Min_cycle;Max_cycle;Signal;HPM_P1;HPM_P2
2022/07/13 00:01:15;;;;;;;2.17;1.97;;;;;;;17.84;81.98;100913.34;5181605;56;1139035;-70
2022/07/13 00:06:21;;;;;;;3.27;1.53;;;;;;;17.84;81.65;100909.33;5195509;56;1139004;-69
2022/07/13 00:11:27;;;;;;;2.23;1.73;;;;;;;17.85;83.57;100913.69;5195084;56;1139047;-69
2022/07/13 00:16:33;;;;;;;1.67;1.57;;;;;;;17.81;82.55;100917.66;5196088;56;1139276;-69
2022/07/13 00:21:39;;;;;;;3.70;1.80;;;;;;;17.79;82.36;100914.80;5206281;56;1139245;-69
2022/07/13 00:26:45;;;;;;;1.90;1.80;;;;;;;17.80;83.24;100919.16;5190770;56;1139049;-69
2022/07/13 00:31:50;;;;;;;2.07;1.90;;;;;;;17.76;83.07;100919.12;5214268;56;1139268;-69
2022/07/13 00:36:57;;;;;;;2.30;2.10;;;;;;;17.74;83.42;100911.24;5184916;56;1136939;-69
2022/07/13 00:42:02;;;;;;;1.57;1.47;;;;;;;17.72;83.67;100911.08;5065748;57;1137101;-69
2022/07/13 00:47:08;;;;;;;1.82;1.72;;;;;;;17.74;84.25;100903.71;5102685;56;1137019;-69
2022/07/13 00:52:15;;;;;;;3.60;1.50;;;;;;;17.71;83.71;100898.70;5057396;57;1137419;-68
2022/07/13 00:57:21;;;;;;;1.77;1.67;;;;;;;17.70;84.12;100888.50;5058656;58;1136979;-69
2022/07/13 01:02:27;;;;;;;2.87;1.53;;;;;;;17.66;84.47;100882.27;5055443;57;1136987;-68
2022/07/13 01:07:33;;;;;;;2.57;1.70;;;;;;;17.61;84.18;100877.84;5067746;57;1137281;-69
2022/07/13 01:12:41;;;;;;;1.70;1.42;;;;;;;17.55;84.91;100874.81;5077503;57;1136979;-69
2022/07/13 01:17:49;;;;;;;3.70;2.13;;;;;;;17.50;85.25;100874.92;5023892;58;1137246;-69
2022/07/13 01:22:55;;;;;;;2.30;1.80;;;;;;;17.48;85.01;100874.23;5131079;57;1136978;-69
2022/07/13 01:28:01;;;;;;;6.23;2.17;;;;;;;17.40;85.79;100880.87;5079725;57;1137042;-69
2022/07/13 01:33:07;;;;;;;2.17;1.97;;;;;;;17.32;85.83;100874.94;5129416;57;1136966;-70
2022/07/13 01:38:14;;;;;;;2.50;2.03;;;;;;;17.23;86.73;100871.36;5133399;57;1137153;-69
2022/07/13 01:43:23;;;;;;;1.20;1.20;;;;;;;17.17;86.34;100854.59;5133226;57;1137137;-69
2022/07/13 01:48:28;;;;;;;2.10;1.80;;;;;;;17.15;87.24;100867.27;5177920;56;1137184;-69
2022/07/13 01:53:34;;;;;;;3.53;1.90;;;;;;;17.08;86.83;100866.21;5208055;56;1137165;-68
2022/07/13 01:58:40;;;;;;;4.50;1.60;;;;;;;17.03;87.22;100868.48;5121073;57;1134879;-69
2022/07/13 02:03:46;;;;;;;1.83;1.73;;;;;;;16.98;88.07;100857.41;5119978;57;1134870;-69
2022/07/13 02:08:52;;;;;;;3.10;1.87;;;;;;;16.95;87.63;100845.71;4914600;58;1139001;-68
2022/07/13 02:13:59;;;;;;;3.00;1.72;;;;;;;16.95;87.88;100847.55;5202580;57;1139030;-69
2022/07/13 02:19:05;;;;;;;5.40;1.90;;;;;;;16.90;89.20;100850.66;5205386;57;1139005;-68
2022/07/13 02:24:11;;;;;;;3.90;2.30;;;;;;;16.84;88.66;100849.92;4984677;57;1139053;-68
2022/07/13 02:29:18;;;;;;;3.33;2.17;;;;;;;16.79;89.88;100845.05;5199505;56;1138999;-69
2022/07/13 02:34:27;;;;;;;6.27;2.27;;;;;;;16.78;90.07;100842.03;5118871;57;1139084;-70
2022/07/13 02:39:31;;;;;;;3.27;2.47;;;;;;;16.76;90.17;100831.98;5091031;58;1139262;-69
2022/07/13 02:44:37;;;;;;;2.00;1.90;;;;;;;16.77;90.42;100837.67;5034477;58;1139151;-68
2022/07/13 02:49:44;;;;;;;3.03;2.10;;;;;;;16.78;91.18;100840.70;5174655;56;1139083;-69
2022/07/13 02:54:50;;;;;;;3.03;2.20;;;;;;;16.79;92.21;100837.03;5043382;57;1139078;-68
2022/07/13 02:59:56;;;;;;;2.27;2.07;;;;;;;16.78;92.32;100839.86;5283594;56;1139058;-69
2022/07/13 03:05:02;;;;;;;1.73;1.60;;;;;;;16.78;93.10;100836.69;5046666;57;1139277;-69
2022/07/13 03:10:09;;;;;;;3.27;2.23;;;;;;;16.81;93.76;100828.34;5195548;57;1139043;-69
2022/07/13 03:15:17;;;;;;;3.53;2.33;;;;;;;16.85;93.68;100830.23;5161263;57;1138991;-68
2022/07/13 03:20:23;;;;;;;2.70;2.00;;;;;;;16.92;93.89;100823.80;5195523;57;1139127;-69
2022/07/13 03:25:29;;;;;;;2.87;1.90;;;;;;;16.98;94.48;100829.34;5191779;57;1139265;-67
2022/07/13 03:30:36;;;;;;;4.53;3.30;;;;;;;17.05;94.38;100827.76;5195362;57;1139071;-69
2022/07/13 03:35:43;;;;;;;2.20;1.93;;;;;;;17.12;94.38;100824.80;5217082;56;1139180;-69
2022/07/13 03:40:49;;;;;;;5.03;2.60;;;;;;;17.21;95.06;100833.75;5247915;56;1139053;-68
2022/07/13 03:45:56;;;;;;;2.70;1.90;;;;;;;17.26;94.58;100833.30;5283297;56;1138542;-68
2022/07/13 03:51:02;;;;;;;2.53;2.10;;;;;;;17.37;94.19;100837.05;5283412;56;1138996;-68
2022/07/13 03:56:08;;;;;;;1.30;1.23;;;;;;;17.37;94.02;100843.23;5180885;55;1139097;-67
2022/07/13 04:01:15;;;;;;;2.40;1.53;;;;;;;17.36;94.37;100842.05;5140983;56;1139318;-68
2022/07/13 04:06:21;;;;;;;2.10;2.00;;;;;;;17.39;93.33;100849.27;5164722;56;1138870;-67
2022/07/13 04:11:28;;;;;;;1.63;1.47;;;;;;;17.26;93.79;100831.46;5163900;57;1139116;-68
2022/07/13 04:16:35;;;;;;;2.30;1.20;;;;;;;17.26;93.79;100831.46;5163730;56;1139068;-68
2022/07/13 04:21:42;;;;;;;3.27;1.43;;;;;;;17.34;93.85;100835.52;5163672;56;1139074;-67
2022/07/13 04:26:49;;;;;;;2.27;1.27;;;;;;;17.40;93.96;100836.25;5163545;57;1138992;-68
2022/07/13 04:31:56;;;;;;;7.70;1.53;;;;;;;17.49;94.17;100837.14;5163810;57;1139207;-67
2022/07/13 04:37:02;;;;;;;2.70;1.97;;;;;;;17.58;93.83;100825.48;5120896;57;1139019;-69
2022/07/13 04:42:08;;;;;;;2.90;1.90;;;;;;;17.77;93.25;100842.71;5113932;57;1139044;-67
2022/07/13 04:47:15;;;;;;;4.73;2.00;;;;;;;17.90;92.95;100833.76;5163535;57;1139420;-68
2022/07/13 04:52:21;;;;;;;3.33;1.40;;;;;;;18.03;92.52;100827.97;5209528;56;1139073;-67
2022/07/13 04:57:28;;;;;;;3.67;1.63;;;;;;;18.18;91.66;100845.64;5178813;56;1139150;-68
2022/07/13 05:02:35;;;;;;;2.30;2.00;;;;;;;18.22;90.87;100834.92;5109826;57;1138823;-68
2022/07/13 05:07:42;;;;;;;1.87;1.40;;;;;;;18.25;90.58;100839.96;5077424;58;1139122;-68
2022/07/13 05:12:48;;;;;;;2.00;1.83;;;;;;;18.27;90.41;100843.33;5077506;58;1136932;-67
2022/07/13 05:17:55;;;;;;;3.43;1.50;;;;;;;18.29;90.01;100849.36;5077580;58;1137211;-68
2022/07/13 05:23:01;;;;;;;2.20;1.60;;;;;;;18.23;90.08;100848.16;5077481;58;1136991;-68
2022/07/13 05:28:08;;;;;;;3.83;1.30;;;;;;;18.12;89.82;100848.94;5077571;57;1136931;-67
2022/07/13 05:33:18;;;;;;;7.30;1.77;;;;;;;18.07;90.28;100849.41;5033454;57;1137039;-68
2022/07/13 05:38:25;;;;;;;2.07;1.87;;;;;;;18.12;90.35;100848.44;5119320;56;1136953;-66
2022/07/13 05:43:32;;;;;;;2.67;1.77;;;;;;;18.18;89.73;100847.78;5115273;57;1137025;-66
2022/07/13 05:48:38;;;;;;;2.70;1.57;;;;;;;18.27;89.75;100846.00;5089042;57;1137026;-68
2022/07/13 05:53:46;;;;;;;2.37;1.57;;;;;;;18.52;90.03;100849.60;5159291;57;1136948;-67
2022/07/13 05:58:51;;;;;;;1.53;1.23;;;;;;;18.71;89.28;100853.88;5082724;57;1137192;-68
2022/07/13 06:03:57;;;;;;;2.77;1.10;;;;;;;18.94;88.62;100850.94;5191616;56;1136980;-67
2022/07/13 06:09:03;;;;;;;7.33;1.52;;;;;;;19.19;87.45;100845.09;5194661;56;1137014;-68
2022/07/13 06:14:09;;;;;;;3.35;1.20;;;;;;;19.39;86.57;100838.91;5153402;56;1137051;-68
2022/07/13 06:19:15;;;;;;;4.28;1.27;;;;;;;19.85;84.21;100848.10;5152731;57;1136972;-68
2022/07/13 06:24:20;;;;;;;6.60;1.55;;;;;;;19.85;84.21;100848.10;5148553;57;1136880;-68
2022/07/13 06:29:27;;;;;;;1.42;1.37;;;;;;;19.94;83.35;100846.56;5190489;56;1136993;-68
2022/07/13 06:34:33;;;;;;;7.20;1.30;;;;;;;20.07;83.05;100847.86;5061302;57;1136993;-69
2022/07/13 06:39:39;;;;;;;7.78;1.20;;;;;;;20.25;82.73;100857.87;5169294;56;1134879;-69
2022/07/13 06:44:45;;;;;;;6.62;1.32;;;;;;;20.36;80.43;100861.05;5121878;57;1260427;-69
2022/07/13 06:49:51;;;;;;;6.30;1.52;;;;;;;20.62;80.49;100858.60;5140178;57;1139149;-69
2022/07/13 06:54:57;;;;;;;3.80;1.17;;;;;;;20.76;78.10;100851.13;5122370;57;1138981;-69
2022/07/13 07:00:04;;;;;;;2.23;1.40;;;;;;;20.85;76.95;100848.71;5093197;57;1138296;-69
2022/07/13 07:05:10;;;;;;;1.40;1.30;;;;;;;21.00;76.70;100850.96;5079663;57;1139185;-69
2022/07/13 07:10:16;;;;;;;1.57;0.90;;;;;;;21.14;76.17;100839.94;5079309;57;1139038;-69
2022/07/13 07:15:23;;;;;;;2.62;1.32;;;;;;;21.27;74.68;100852.30;5079437;57;1139001;-70
2022/07/13 07:20:29;;;;;;;2.25;1.20;;;;;;;21.32;72.21;100845.05;5079199;57;1139000;-68
2022/07/13 07:25:35;;;;;;;3.15;1.12;;;;;;;21.34;72.10;100844.36;5066360;57;1139050;-69
2022/07/13 07:30:41;;;;;;;5.22;1.40;;;;;;;21.45;71.91;100838.53;5079215;57;1139015;-69
2022/07/13 07:35:47;;;;;;;2.22;1.50;;;;;;;21.41;69.42;100848.81;5107930;57;1138971;-69
2022/07/13 07:40:52;;;;;;;1.55;1.20;;;;;;;21.44;69.35;100846.78;5143388;57;1139354;-69
2022/07/13 07:45:58;;;;;;;7.45;1.60;;;;;;;21.65;67.74;100859.05;5093097;56;1139074;-68
2022/07/13 07:51:05;;;;;;;3.50;1.40;;;;;;;21.74;66.95;100859.29;5109292;56;1139072;-69
2022/07/13 07:56:11;;;;;;;1.35;1.17;;;;;;;21.76;65.52;100855.40;5106435;56;1139135;-69
2022/07/13 08:01:17;;;;;;;2.30;1.27;;;;;;;21.74;64.02;100852.05;5106466;57;1139075;-69
2022/07/13 08:06:23;;;;;;;4.30;1.15;;;;;;;21.81;67.15;100845.95;5098993;56;1139068;-69
2022/07/13 08:11:29;;;;;;;1.70;1.47;;;;;;;21.81;67.15;100845.95;5120658;56;1139033;-68
2022/07/13 08:16:35;;;;;;;2.67;1.60;;;;;;;21.89;66.39;100842.64;5135773;56;1139045;-68
2022/07/13 08:21:40;;;;;;;13.35;2.02;;;;;;;;;;5098303;56;1139063;-68
2022/07/13 08:26:45;;;;;;;2.08;1.45;;;;;;;22.19;66.12;100841.33;5074252;57;820463;-68
2022/07/13 08:31:51;;;;;;;1.32;1.22;;;;;;;22.37;62.65;100842.62;5094549;57;1136877;-69
2022/07/13 08:42:20;;;;;;;3.40;1.10;;;;;;;22.88;57.61;100831.02;5116538;56;1139011;-67
2022/07/13 08:47:29;;;;;;;1.67;1.00;;;;;;;23.13;55.16;100824.20;5116454;57;1139068;-68
2022/07/13 08:52:38;;;;;;;4.12;1.30;;;;;;;23.19;54.35;100827.48;5119486;57;1139110;-68
2022/07/13 08:57:44;;;;;;;7.42;1.52;;;;;;;23.35;55.13;100822.33;5126832;56;1139058;-69
2022/07/13 09:02:52;;;;;;;7.63;1.50;;;;;;;23.56;55.93;100812.02;5173172;56;1139189;-69
2022/07/13 09:08:13;;;;;;;1.17;1.15;;;;;;;23.57;55.56;100812.34;5190076;56;1139051;-69
2022/07/13 09:13:45;;;;;;;1.67;1.37;;;;;;;23.78;55.27;100807.73;5180263;56;1139079;-68
2022/07/13 09:18:55;;;;;;;2.60;1.07;;;;;;;23.90;56.34;100810.70;5191561;56;1137046;-68
2022/07/13 09:24:05;;;;;;;2.52;1.30;;;;;;;23.93;56.66;100825.69;5186287;56;1136949;-69
2022/07/13 09:29:12;;;;;;;1.45;1.40;;;;;;;23.93;57.99;100823.83;5161633;56;1137405;-69
2022/07/13 09:34:18;;;;;;;5.85;1.72;;;;;;;23.91;58.10;100827.23;5163413;56;1137066;-68
2022/07/13 09:39:24;;;;;;;2.00;1.85;;;;;;;23.90;59.11;100822.86;5176343;56;1136947;-68
2022/07/13 09:49:55;;;;;;;2.05;1.95;;;;;;;23.95;59.45;100818.22;5241908;56;1136896;-68
2022/07/13 09:55:04;;;;;;;1.92;1.67;;;;;;;24.00;60.40;100810.34;5215194;56;1137161;-69
2022/07/13 10:00:12;;;;;;;2.62;1.40;;;;;;;24.06;60.95;100815.79;5123163;56;1137198;-69
2022/07/13 10:05:20;;;;;;;4.03;1.27;;;;;;;24.18;60.15;100816.89;5151020;57;1134839;-68
2022/07/13 10:10:26;;;;;;;8.50;1.22;;;;;;;24.35;58.94;100817.93;5151017;57;1134928;-69
2022/07/13 10:15:32;;;;;;;1.37;1.27;;;;;;;24.51;59.02;100810.82;5151009;57;1139021;-68
2022/07/13 10:20:42;;;;;;;1.87;1.53;;;;;;;24.56;57.83;100820.52;5115701;57;1139365;-68
2022/07/13 10:25:51;;;;;;;1.47;1.37;;;;;;;24.48;58.88;100824.73;5067841;57;1139032;-69
2022/07/13 10:30:57;;;;;;;6.15;1.47;;;;;;;24.50;58.10;100828.08;4986242;59;1139389;-68
2022/07/13 10:36:04;;;;;;;4.97;1.30;;;;;;;24.58;58.27;100810.86;4926511;59;1139223;-69
2022/07/13 10:41:24;;;;;;;2.25;0.90;;;;;;;24.70;58.73;100807.87;5009266;57;1139057;-69
2022/07/13 10:46:49;;;;;;;1.95;1.02;;;;;;;24.73;57.08;100814.23;5118765;57;1139067;-69
2022/07/13 10:52:02;;;;;;;1.57;1.12;;;;;;;24.54;57.48;100811.25;4827516;60;1139196;-69
2022/07/13 10:57:15;;;;;;;1.12;1.02;;;;;;;24.36;56.78;100800.67;4766439;61;1139148;-69
2022/07/13 11:02:50;;;;;;;3.15;1.15;;;;;;;24.30;57.73;100804.17;4865322;59;1139142;-69
2022/07/13 11:07:56;;;;;;;4.05;1.17;;;;;;;24.37;58.09;100808.59;4894513;60;1139416;-69
2022/07/13 11:13:04;;;;;;;2.83;1.27;;;;;;;24.36;58.02;100798.81;4906459;59;1139481;-70
2022/07/13 11:18:32;;;;;;;2.47;1.25;;;;;;;24.44;58.94;100793.20;4907105;59;1139089;-69
2022/07/13 11:29:51;;;;;;;3.30;1.02;;;;;;;24.79;57.64;100783.11;5131549;57;1136962;-69
2022/07/13 11:34:58;;;;;;;0.93;0.93;;;;;;;24.81;56.32;100788.33;5145149;57;1137225;-69
2022/07/13 11:40:04;;;;;;;1.10;1.10;;;;;;;24.81;57.02;100787.80;5137151;57;1136905;-69
2022/07/13 11:45:10;;;;;;;2.90;1.50;;;;;;;24.74;56.23;100784.27;5063586;57;1137221;-69
2022/07/13 11:50:16;;;;;;;3.85;1.30;;;;;;;24.71;57.14;100771.15;5142125;57;1137171;-67
2022/07/13 11:55:21;;;;;;;3.47;1.05;;;;;;;24.76;57.40;100765.94;5119567;56;1136956;-69
2022/07/13 12:00:28;;;;;;;1.80;1.07;;;;;;;24.82;57.68;100767.83;4978789;57;1137200;-70
2022/07/13 12:05:34;;;;;;;3.80;0.98;;;;;;;24.96;57.37;100765.17;5154269;56;1136946;-68
2022/07/13 12:10:40;;;;;;;1.98;1.50;;;;;;;25.15;57.14;100761.12;5157897;57;1137103;-68
2022/07/13 12:15:48;;;;;;;5.05;2.98;;;;;;;25.39;56.95;100762.87;5115392;57;1135384;-69
2022/07/13 12:20:54;;;;;;;3.50;1.30;;;;;;;25.50;56.11;100761.73;5098091;58;21222;-68
2022/07/13 12:26:08;;;;;;;2.25;2.02;;;;;;;25.60;55.29;100754.52;5078802;57;1134742;-68
2022/07/13 12:31:13;;;;;;;1.77;1.50;;;;;;;25.63;53.91;100756.02;5132063;57;1138989;-69
2022/07/13 12:36:22;;;;;;;3.72;1.77;;;;;;;25.59;53.60;100752.85;5131754;57;1138995;-69
2022/07/13 12:41:43;;;;;;;2.70;1.40;;;;;;;25.68;53.45;100738.05;5073543;58;1139200;-67
2022/07/13 12:46:54;;;;;;;4.55;2.00;;;;;;;25.79;52.53;100727.11;5077275;57;1139237;-68
2022/07/13 12:52:09;;;;;;;2.85;1.95;;;;;;;25.99;53.36;100708.88;5162385;56;1139032;-68
2022/07/13 12:57:26;;;;;;;2.20;1.15;;;;;;;26.46;54.94;100691.86;5162115;56;1139035;-69
2022/07/13 13:02:31;;;;;;;2.98;1.22;;;;;;;26.78;49.21;100694.87;5137550;57;1139034;-68
2022/07/13 13:07:39;;;;;;;1.00;1.00;;;;;;;26.82;50.69;100705.59;5045123;57;1139068;-68
2022/07/13 13:12:44;;;;;;;1.35;0.93;;;;;;;26.72;48.86;100697.65;4999004;57;1139014;-68
2022/07/13 13:17:50;;;;;;;2.25;1.70;;;;;;;26.68;49.14;100695.89;5120022;57;1139076;-69
2022/07/13 13:22:56;;;;;;;1.00;1.00;;;;;;;26.57;48.81;100703.39;5132866;57;1139034;-68
2022/07/13 13:28:02;;;;;;;2.35;1.07;;;;;;;26.50;50.63;100684.95;5051790;57;1139056;-69
2022/07/13 13:33:08;;;;;;;4.60;1.60;;;;;;;26.54;50.88;100677.53;5050032;57;1139061;-68
2022/07/13 13:38:15;;;;;;;1.20;1.00;;;;;;;26.66;51.36;100660.01;5072887;57;1139016;-68
2022/07/13 13:43:21;;;;;;;1.05;1.05;;;;;;;26.92;49.04;100651.63;5112593;57;1139012;-69
2022/07/13 13:48:27;;;;;;;2.55;1.10;;;;;;;27.22;47.35;100650.44;5155503;57;1139059;-69
2022/07/13 13:53:33;;;;;;;16.45;2.00;;;;;;;27.29;45.25;100647.13;5122357;57;1139036;-68
2022/07/13 13:58:39;;;;;;;1.07;1.00;;;;;;;27.41;47.02;100651.81;5081045;57;1141247;-66
2022/07/13 14:03:45;;;;;;;2.05;1.20;;;;;;;27.25;45.85;100651.34;5098063;57;1139039;-65
2022/07/13 14:08:51;;;;;;;1.20;1.10;;;;;;;27.06;45.62;100632.00;5126838;57;1139115;-66
2022/07/13 14:13:58;;;;;;;0.70;0.70;;;;;;;27.04;46.04;100625.97;5117295;57;1139027;-67
2022/07/13 14:19:04;;;;;;;1.15;0.80;;;;;;;27.03;43.92;100617.55;5157716;56;1139118;-66
2022/07/13 14:24:10;;;;;;;2.08;0.90;;;;;;;27.18;41.90;100600.89;5200825;56;1138945;-66
2022/07/13 14:29:15;;;;;;;0.93;0.60;;;;;;;27.74;44.13;100598.45;5244632;56;1139079;-66
2022/07/13 14:34:21;;;;;;;0.70;0.70;;;;;;;28.18;37.92;100592.58;5246605;56;1138980;-66
2022/07/13 14:39:27;;;;;;;2.08;0.50;;;;;;;28.49;39.48;100589.30;5160586;56;1139073;-66
2022/07/13 14:44:33;;;;;;;3.27;0.72;;;;;;;28.46;36.72;100585.69;5165324;56;1138979;-66
2022/07/13 14:49:39;;;;;;;5.10;0.57;;;;;;;28.59;37.26;100592.27;5176476;56;1139280;-67
2022/07/13 14:54:44;;;;;;;0.30;0.30;;;;;;;28.49;36.86;100587.94;5171103;56;1139289;-67
2022/07/13 14:59:50;;;;;;;0.62;0.62;;;;;;;28.25;36.41;100589.28;5165980;56;1137093;-69
2022/07/13 15:04:56;;;;;;;1.25;0.53;;;;;;;28.07;37.16;100602.08;5168998;56;1136973;-67
2022/07/13 15:10:02;;;;;;;1.10;0.60;;;;;;;28.00;36.31;100606.23;5162353;56;1136917;-67
2022/07/13 15:15:09;;;;;;;3.12;0.40;;;;;;;27.85;37.29;100594.95;5161538;56;1136996;-68
2022/07/13 15:20:15;;;;;;;2.08;0.60;;;;;;;27.73;37.73;100593.55;5161374;56;1137203;-68
2022/07/13 15:25:21;;;;;;;0.55;0.55;;;;;;;27.69;38.98;100588.27;5168346;56;1137009;-68
2022/07/13 15:30:28;;;;;;;4.03;0.78;;;;;;;27.69;38.97;100584.72;5141781;56;1136952;-67
2022/07/13 15:35:33;;;;;;;0.60;0.60;;;;;;;27.62;39.50;100576.67;5153157;56;1137188;-68
2022/07/13 15:46:01;;;;;;;0.45;0.45;;;;;;;27.52;38.83;100572.25;5155277;56;1137013;-67
2022/07/13 15:51:07;;;;;;;0.70;0.70;;;;;;;27.45;38.32;100558.77;5205779;56;1137271;-68
2022/07/13 15:56:13;;;;;;;2.52;0.82;;;;;;;27.40;37.97;100550.47;5146739;57;1137007;-67
2022/07/13 16:01:18;;;;;;;0.50;0.50;;;;;;;27.43;39.38;100549.19;5155211;57;1137240;-69
2022/07/13 16:06:24;;;;;;;1.85;1.12;;;;;;;27.42;38.99;100537.49;5155319;57;1137316;-68
2022/07/13 16:11:30;;;;;;;6.80;0.85;;;;;;;27.37;39.50;100535.98;5149567;57;1137043;-68
2022/07/13 16:16:37;;;;;;;0.93;0.50;;;;;;;27.30;39.78;100529.82;5147075;57;1134907;-68
2022/07/13 16:21:43;;;;;;;0.50;0.50;;;;;;;27.28;39.39;100534.64;5155261;57;1134891;-69
2022/07/13 16:26:49;;;;;;;0.57;0.57;;;;;;;27.27;40.55;100532.98;5155124;57;1139133;-67
2022/07/13 16:31:55;;;;;;;6.80;0.97;;;;;;;27.24;39.05;100534.80;5154024;57;1138991;-68
2022/07/13 16:37:00;;;;;;;3.40;0.53;;;;;;;27.18;39.94;100539.80;5125871;57;1139030;-68
2022/07/13 16:42:06;;;;;;;2.62;0.90;;;;;;;27.14;39.67;100539.94;5155030;57;1139121;-68
2022/07/13 16:47:12;;;;;;;1.00;0.60;;;;;;;27.09;40.36;100534.34;5160005;56;1138996;-67
2022/07/13 16:52:20;;;;;;;0.88;0.88;;;;;;;27.02;39.97;100534.97;5194476;56;1138980;-68
2022/07/13 16:57:25;;;;;;;3.83;0.70;;;;;;;26.92;39.72;100529.48;5134660;56;1138996;-70
2022/07/13 17:02:31;;;;;;;0.65;0.65;;;;;;;26.85;39.59;100526.56;5142515;56;1139067;-68
2022/07/13 17:07:36;;;;;;;1.10;0.72;;;;;;;26.82;40.11;100538.69;5190747;56;1139098;-68
2022/07/13 17:12:42;;;;;;;5.17;0.60;;;;;;;26.79;40.44;100538.30;4995360;58;1139301;-68
2022/07/13 17:17:48;;;;;;;5.97;0.60;;;;;;;26.75;40.37;100534.37;5188398;56;1139001;-68
2022/07/13 17:22:55;;;;;;;1.65;0.80;;;;;;;26.69;40.18;100533.41;5192522;56;1139092;-67
2022/07/13 17:28:01;;;;;;;0.45;0.42;;;;;;;26.67;41.32;100538.74;5142616;57;1139272;-68
2022/07/13 17:33:07;;;;;;;2.67;0.50;;;;;;;26.62;40.32;100538.87;4997653;59;1139026;-67
2022/07/13 17:38:13;;;;;;;3.10;0.60;;;;;;;26.55;40.39;100528.63;5109536;57;1139333;-67
2022/07/13 17:43:21;;;;;;;0.70;0.63;;;;;;;26.51;40.76;100531.48;5083111;57;1139081;-67
2022/07/13 17:48:26;;;;;;;6.47;0.90;;;;;;;26.45;41.30;100526.94;5045051;58;1139257;-67
2022/07/13 17:53:32;;;;;;;5.37;0.72;;;;;;;26.41;41.36;100518.96;5110229;57;1139116;-67
2022/07/13 17:58:38;;;;;;;2.87;0.70;;;;;;;26.40;41.67;100516.47;5146617;57;1139008;-67
2022/07/13 18:03:44;;;;;;;4.33;0.72;;;;;;;26.37;41.76;100512.84;5155472;57;1139089;-67
2022/07/13 18:08:50;;;;;;;1.42;0.70;;;;;;;26.30;41.88;100522.90;5126329;57;1139062;-68
2022/07/13 18:13:58;;;;;;;4.75;0.98;;;;;;;26.21;42.23;100519.62;5111734;57;1139018;-68
2022/07/13 18:19:04;;;;;;;2.90;0.82;;;;;;;26.15;41.84;100514.54;5129298;57;1139067;-68
2022/07/13 18:24:12;;;;;;;2.98;1.02;;;;;;;26.11;42.12;100516.05;5097014;57;1139070;-68
2022/07/13 18:29:18;;;;;;;1.35;0.85;;;;;;;26.06;42.31;100515.88;5130695;57;1139064;-68
2022/07/13 18:34:24;;;;;;;0.93;0.93;;;;;;;26.01;42.73;100517.58;5132305;57;1138989;-69
2022/07/13 18:39:30;;;;;;;3.85;0.72;;;;;;;25.93;42.67;100518.69;5120023;57;1139144;-68
2022/07/13 18:44:36;;;;;;;2.12;0.82;;;;;;;25.89;43.07;100514.75;5079185;58;1139038;-67
2022/07/13 18:49:43;;;;;;;2.85;1.30;;;;;;;25.85;43.28;100521.13;5005645;58;1139140;-68
2022/07/13 18:54:49;;;;;;;0.98;0.98;;;;;;;25.71;43.57;100524.13;5010808;58;1139111;-68
2022/07/13 18:59:55;;;;;;;4.55;1.00;;;;;;;25.52;43.80;100522.64;5112768;56;1139218;-68
2022/07/13 19:05:02;;;;;;;1.00;0.80;;;;;;;25.43;43.73;100528.53;5116952;57;1139182;-68
2022/07/13 19:10:08;;;;;;;1.15;0.98;;;;;;;25.34;44.13;100534.73;5156638;56;1139311;-68
2022/07/13 19:15:15;;;;;;;4.80;1.25;;;;;;;25.29;44.73;100536.41;5159762;56;1139010;-68
2022/07/13 19:20:20;;;;;;;0.85;0.85;;;;;;;25.21;45.08;100538.81;5156948;56;1139105;-68
2022/07/13 19:30:49;;;;;;;4.83;0.75;;;;;;;25.03;46.08;100538.17;5241794;56;1137143;-68
2022/07/13 19:35:55;;;;;;;5.05;0.82;;;;;;;24.93;46.50;100536.90;5217604;56;1136895;-68
2022/07/13 19:41:01;;;;;;;5.15;1.10;;;;;;;24.85;47.13;100530.69;5159216;57;1137043;-68
2022/07/13 19:46:07;;;;;;;7.62;1.52;;;;;;;24.76;47.44;100529.23;5241237;56;1136994;-68
2022/07/13 19:51:12;;;;;;;2.77;1.27;;;;;;;24.72;47.84;100534.78;5211073;56;1137145;-69
2022/07/13 19:56:18;;;;;;;2.72;1.27;;;;;;;24.65;48.14;100528.53;5192959;56;1136946;-67
2022/07/13 20:01:25;;;;;;;3.85;1.10;;;;;;;24.57;48.18;100522.53;5230412;56;1136978;-68
2022/07/13 20:06:30;;;;;;;5.92;1.47;;;;;;;24.49;48.47;100522.21;5242402;56;1137221;-68
2022/07/13 20:11:36;;;;;;;1.80;1.07;;;;;;;24.42;48.67;100524.94;5173641;56;1136965;-67
2022/07/13 20:16:41;;;;;;;6.87;1.10;;;;;;;24.37;48.92;100517.12;5163796;56;1137085;-68
2022/07/13 20:21:47;;;;;;;1.27;1.10;;;;;;;24.26;49.27;100528.58;5163746;56;1137159;-67
2022/07/13 20:26:53;;;;;;;2.10;1.90;;;;;;;24.12;49.59;100526.36;5163966;56;1136948;-69
2022/07/13 20:31:59;;;;;;;11.60;3.65;;;;;;;24.00;49.99;100522.59;5148712;57;1137206;-68
2022/07/13 20:37:05;;;;;;;6.42;5.92;;;;;;;23.90;50.41;100520.30;5119921;56;1139010;-68
2022/07/13 20:42:11;;;;;;;3.45;2.02;;;;;;;23.83;50.63;100516.77;5153235;57;1136990;-67
2022/07/13 20:47:17;;;;;;;3.30;2.12;;;;;;;23.78;50.88;100521.43;5187065;56;1137281;-68
2022/07/13 20:52:22;;;;;;;8.45;2.15;;;;;;;23.73;51.06;100523.91;5246811;56;1137099;-67
2022/07/13 20:57:28;;;;;;;8.28;2.40;;;;;;;23.68;51.29;100522.32;5176976;56;1136957;-68
2022/07/13 21:02:34;;;;;;;6.33;1.85;;;;;;;23.69;52.47;100523.98;5160192;57;1134889;-67
2022/07/13 21:07:39;;;;;;;4.58;2.70;;;;;;;23.62;52.64;100520.45;5160230;57;1134894;-67
2022/07/13 21:12:45;;;;;;;4.20;2.77;;;;;;;23.58;52.81;100525.11;5160090;57;1139108;-67
2022/07/13 21:17:51;;;;;;;4.42;1.72;;;;;;;23.46;52.74;100522.97;5160218;57;1138948;-69
2022/07/13 21:22:56;;;;;;;1.33;1.23;;;;;;;23.34;53.20;100523.77;5160245;57;1139310;-68
2022/07/13 21:28:04;;;;;;;1.50;1.40;;;;;;;23.21;53.61;100528.59;5160313;57;1138944;-68
2022/07/13 21:33:09;;;;;;;1.40;1.30;;;;;;;23.15;54.44;100534.27;5160134;57;1139040;-68
2022/07/13 21:38:15;;;;;;;5.28;2.20;;;;;;;23.16;55.01;100533.75;5159862;57;1139041;-67
2022/07/13 21:43:22;;;;;;;7.45;1.50;;;;;;;23.14;55.79;100538.00;5159964;57;1139036;-68
2022/07/13 21:48:28;;;;;;;4.53;1.50;;;;;;;23.06;56.22;100540.88;5207218;56;1139078;-68
2022/07/13 21:53:34;;;;;;;2.83;1.70;;;;;;;22.96;56.73;100549.83;5245036;56;1139064;-67
2022/07/13 21:58:39;;;;;;;4.22;1.77;;;;;;;22.85;57.42;100553.59;5125209;57;1139041;-67
2022/07/13 22:03:46;;;;;;;4.42;1.98;;;;;;;22.79;57.70;100560.09;5160036;57;1139098;-67
2022/07/13 22:08:50;;;;;;;3.15;1.90;;;;;;;22.73;57.47;100562.22;5160096;57;1138988;-67
2022/07/13 22:14:50;;;;;;;3.35;1.98;;;;;;;22.69;57.77;100570.38;5131203;57;1139083;-68
2022/07/13 22:20:50;;;;;;;3.52;2.22;;;;;;;22.69;57.79;100568.19;5130781;57;1138943;-68
2022/07/13 22:26:49;;;;;;;5.28;2.02;;;;;;;22.67;57.57;100577.81;5103843;57;1139057;-68
2022/07/13 22:32:49;;;;;;;6.53;2.22;;;;;;;22.59;57.51;100583.38;5132478;57;1136990;-67
2022/07/13 22:38:49;;;;;;;4.05;1.92;;;;;;;22.55;57.80;100582.09;5099902;57;1134946;-68
2022/07/13 22:44:48;;;;;;;13.28;2.60;;;;;;;22.52;57.76;100575.73;5037061;58;1139159;-68
2022/07/13 22:50:48;;;;;;;4.15;2.08;;;;;;;22.43;57.84;100583.14;5096297;57;1141270;-68
2022/07/13 22:56:48;;;;;;;7.08;2.15;;;;;;;22.42;58.24;100577.94;5114410;57;1138985;-68
2022/07/13 23:02:48;;;;;;;2.08;1.67;;;;;;;22.41;58.32;100573.06;5133111;57;1136961;-69
2022/07/13 23:08:47;;;;;;;2.55;1.70;;;;;;;22.36;57.96;100578.70;5151165;57;1136976;-68
2022/07/13 23:14:47;;;;;;;2.72;2.20;;;;;;;22.12;58.05;100575.07;5134517;57;1139254;-68
2022/07/13 23:20:47;;;;;;;1.82;1.70;;;;;;;21.94;58.55;100578.17;5131459;57;1139320;-68
2022/07/13 23:26:47;;;;;;;2.78;2.20;;;;;;;21.83;59.08;100587.59;5131703;57;1139103;-68
2022/07/13 23:32:16;;;;;;;2.02;1.80;;;;;;;21.85;59.85;100588.21;5131540;57;1137246;-67
2022/07/13 23:37:23;;;;;;;5.75;3.10;;;;;;;21.85;60.01;100588.21;5131654;57;1137209;-68
2022/07/13 23:42:29;;;;;;;4.92;2.22;;;;;;;21.84;60.50;100577.15;5133068;57;1136930;-67
2022/07/13 23:47:34;;;;;;;2.50;2.20;;;;;;;21.78;60.66;100599.44;5151623;57;1136942;-68
2022/07/13 23:52:40;;;;;;;4.75;2.25;;;;;;;21.70;61.13;100588.77;5151384;57;1136972;-68